SCEL/SCL METAR and TAF weather

Enter ICAO airport designator
Station Type Date Time Source
SCEL METAR 2019/12/11 12:00 UTC NOAA

SCEL 111200Z VRB02KT CAVOK 16/10 Q1017 NOSIG


Station Type Date Time Source
SCEL Decoded METAR 2019/12/11 12:00 UTC NOAA

Pudahuel, Chile (SCEL) 33-23S 070-47W 476M
Dec 11, 2019 - 07:00 AM EST / 2019.12.11 1200 UTC
Wind: Variable at 2 MPH (2 KT):0
Visibility: greater than 7 mile(s):0
Temperature: 60 F (16 C)
Dew Point: 50 F (10 C)
Relative Humidity: 67%
Pressure (altimeter): 30.03 in. Hg (1017 hPa)
ob: SCEL 111200Z VRB02KT CAVOK 16/10 Q1017 NOSIG
cycle: 12

Station Type Date Time Source
SCEL TAF 2019/12/11 12:03 UTC NOAA

TAF SCEL 111009Z 1112/1212 16005KT CAVOK TX29/1119Z TN12/1211Z
BECMG 1113/1115 18008KT
BECMG 1118/1120 21015KT
BECMG 1206/1208 15008KT
TEMPO 1209/1212 12005KT 8000 NSC

Example: see airport list